createdAt,value
2022-08-17T00:04:34.097Z,27.52
2022-08-17T00:09:47.762Z,27.47
2022-08-17T00:14:54.808Z,27.44
2022-08-17T00:25:20.457Z,27.35
2022-08-17T00:30:29.630Z,27.33
2022-08-17T00:35:48.999Z,27.32
2022-08-17T00:41:04.618Z,27.30
2022-08-17T00:46:22.030Z,27.29
2022-08-17T00:51:44.426Z,27.31
2022-08-17T00:56:58.402Z,27.31
2022-08-17T01:05:25.622Z,27.34
2022-08-17T01:10:58.797Z,27.36
2022-08-17T01:16:09.233Z,27.38
2022-08-17T01:21:24.911Z,27.40
2022-08-17T01:26:30.286Z,27.39
2022-08-17T01:31:38.779Z,27.41
2022-08-17T01:36:44.679Z,27.41
2022-08-17T01:41:53.405Z,27.42
2022-08-17T01:46:59.731Z,27.44
2022-08-17T01:52:11.589Z,27.48
2022-08-17T01:57:18.212Z,27.52
2022-08-17T02:02:30.335Z,27.54
2022-08-17T02:07:59.534Z,27.50
2022-08-17T02:13:04.555Z,27.43
2022-08-17T02:18:09.142Z,27.38
2022-08-17T02:23:17.678Z,27.35
2022-08-17T02:28:21.582Z,27.35
2022-08-17T02:33:41.982Z,27.32
2022-08-17T02:39:12.065Z,27.26
2022-08-17T02:44:39.743Z,27.18
2022-08-17T02:49:54.078Z,27.15
2022-08-17T02:55:02.361Z,27.12
2022-08-17T03:00:35.840Z,27.09
2022-08-17T03:05:49.040Z,27.06
2022-08-17T03:11:02.606Z,27.06
2022-08-17T03:16:08.526Z,27.05
2022-08-17T03:21:14.126Z,27.03
2022-08-17T03:26:32.261Z,27.00
2022-08-17T03:31:36.905Z,26.96
2022-08-17T03:36:49.272Z,26.94
2022-08-17T03:41:53.414Z,26.91
2022-08-17T03:47:16.768Z,26.88
2022-08-17T03:52:39.244Z,26.85
2022-08-17T03:57:57.911Z,26.81
2022-08-17T04:03:27.667Z,26.79
2022-08-17T04:08:43.092Z,26.75
2022-08-17T04:13:49.052Z,26.71
2022-08-17T04:18:54.893Z,26.69
2022-08-17T04:24:11.071Z,26.66
2022-08-17T04:29:26.867Z,26.62
2022-08-17T04:34:56.701Z,26.60
2022-08-17T04:40:29.587Z,26.58
2022-08-17T04:45:57.027Z,26.56
2022-08-17T04:51:03.911Z,26.55
2022-08-17T05:01:29.207Z,26.47
2022-08-17T05:06:46.737Z,26.45
2022-08-17T05:17:11.738Z,26.43
2022-08-17T05:22:21.647Z,26.43
2022-08-17T05:27:35.302Z,26.44
2022-08-17T05:32:57.680Z,26.46
2022-08-17T05:38:01.210Z,26.47
2022-08-17T05:43:44.723Z,26.45
2022-08-17T05:48:57.078Z,26.46
2022-08-17T05:54:45.536Z,26.46
2022-08-17T06:00:33.309Z,26.48
2022-08-17T06:11:53.464Z,26.56
2022-08-17T06:17:06.310Z,26.64
2022-08-17T06:22:18.145Z,26.73
2022-08-17T06:27:48.036Z,26.82
2022-08-17T06:33:08.105Z,26.91
2022-08-17T06:38:37.374Z,27.02
2022-08-17T06:50:24.155Z,27.25
2022-08-17T07:08:51.195Z,27.94
2022-08-17T07:26:21.472Z,28.40
2022-08-17T07:31:34.107Z,28.46
2022-08-17T07:36:47.362Z,28.61
2022-08-17T07:42:09.779Z,28.90
2022-08-17T07:47:39.097Z,29.07
2022-08-17T07:52:51.638Z,29.21
2022-08-17T07:58:08.155Z,29.27
2022-08-17T08:03:36.850Z,29.22
2022-08-17T08:09:01.905Z,29.00
2022-08-17T08:14:36.577Z,28.72
2022-08-17T08:19:49.181Z,28.52
2022-08-17T08:25:22.564Z,28.39
2022-08-17T08:30:33.590Z,28.18
2022-08-17T08:36:04.374Z,27.95
2022-08-17T08:42:11.523Z,27.83
2022-08-17T08:48:12.766Z,27.75
2022-08-17T08:53:52.866Z,27.62
2022-08-17T09:05:44.282Z,27.42
2022-08-17T09:11:12.338Z,27.28
2022-08-17T09:16:37.634Z,27.23
2022-08-17T09:22:04.351Z,27.18
2022-08-17T09:27:24.385Z,27.16
2022-08-17T09:32:54.188Z,27.13
2022-08-17T09:38:46.806Z,27.15
2022-08-17T09:44:23.060Z,27.13
2022-08-17T09:49:58.384Z,27.11
2022-08-17T09:55:05.034Z,27.11
2022-08-17T10:00:33.809Z,27.13
2022-08-17T10:06:10.649Z,27.18
2022-08-17T10:12:06.369Z,27.33
2022-08-17T10:17:31.655Z,27.48
2022-08-17T10:23:13.939Z,27.96
2022-08-17T10:28:33.851Z,28.22
2022-08-17T10:34:41.558Z,28.34
2022-08-17T10:40:02.988Z,28.36
2022-08-17T10:45:31.037Z,28.59
2022-08-17T10:56:29.396Z,28.89
2022-08-17T11:01:48.408Z,29.40
2022-08-17T11:07:44.048Z,29.96
2022-08-17T11:13:45.331Z,30.42
2022-08-17T11:19:24.165Z,30.63
2022-08-17T11:24:39.741Z,30.82
2022-08-17T11:30:13.048Z,31.02
2022-08-17T11:35:41.870Z,31.23
2022-08-17T11:41:17.087Z,31.40
2022-08-17T11:47:19.414Z,31.54
2022-08-17T11:52:46.961Z,31.64
2022-08-17T11:58:03.439Z,31.80
2022-08-17T12:03:55.374Z,31.93
2022-08-17T12:09:35.213Z,31.90
2022-08-17T12:20:45.293Z,31.84
2022-08-17T12:26:10.293Z,31.76
2022-08-17T12:31:35.099Z,31.86
2022-08-17T12:36:50.995Z,31.81
2022-08-17T12:42:10.124Z,31.66
2022-08-17T12:47:32.296Z,31.58
2022-08-17T12:52:49.117Z,31.58
2022-08-17T12:58:38.841Z,31.53
2022-08-17T13:04:03.078Z,31.45
2022-08-17T13:14:49.715Z,30.95
2022-08-17T13:19:54.315Z,30.75
2022-08-17T13:25:09.499Z,30.58
2022-08-17T13:36:33.266Z,30.42
2022-08-17T13:41:41.365Z,30.38
2022-08-17T13:47:21.044Z,30.34
2022-08-17T13:52:52.235Z,30.33
2022-08-17T13:58:06.559Z,30.27
2022-08-17T14:03:19.343Z,30.20
2022-08-17T14:08:22.549Z,30.11
2022-08-17T14:13:40.354Z,30.13
2022-08-17T14:18:57.044Z,30.08
2022-08-17T14:24:00.704Z,30.08
2022-08-17T14:29:02.967Z,30.11
2022-08-17T14:34:11.077Z,30.04
2022-08-17T14:39:22.296Z,30.00
2022-08-17T14:44:30.951Z,29.89
2022-08-17T14:49:34.457Z,29.79
2022-08-17T14:54:40.197Z,29.74
2022-08-17T14:59:58.625Z,29.75
2022-08-17T15:10:32.489Z,29.70
2022-08-17T15:15:38.559Z,29.61
2022-08-17T15:20:54.188Z,29.60
2022-08-17T15:26:07.136Z,29.48
2022-08-17T15:31:18.944Z,29.29
2022-08-17T15:36:45.486Z,29.18
2022-08-17T15:42:03.208Z,29.26
2022-08-17T15:47:09.583Z,29.31
2022-08-17T15:52:32.151Z,29.27
2022-08-17T15:57:40.329Z,29.11
2022-08-17T16:03:47.144Z,29.12
2022-08-17T16:08:21.472Z,29.02
2022-08-17T16:13:32.479Z,29.01
2022-08-17T16:24:29.319Z,28.99
2022-08-17T16:29:34.950Z,29.03
2022-08-17T16:34:47.845Z,29.01
2022-08-17T16:39:57.074Z,28.94
2022-08-17T16:45:30.919Z,28.90
2022-08-17T16:56:03.334Z,28.73
2022-08-17T17:01:05.836Z,28.78
2022-08-17T17:06:29.923Z,28.69
2022-08-17T17:11:53.187Z,28.69
2022-08-17T17:17:16.376Z,28.74
2022-08-17T17:22:39.619Z,28.70
2022-08-17T17:28:15.217Z,28.70
2022-08-17T17:39:48.900Z,28.50
2022-08-17T17:45:24.010Z,28.44
2022-08-17T17:51:54.764Z,28.41
2022-08-17T17:57:37.146Z,28.40
2022-08-17T18:02:54.831Z,28.37
2022-08-17T18:08:46.675Z,28.18
2022-08-17T18:14:46.201Z,28.08
2022-08-17T18:19:53.048Z,28.06
2022-08-17T18:25:00.573Z,28.09
2022-08-17T18:30:23.409Z,28.14
2022-08-17T18:35:46.387Z,28.20
2022-08-17T18:41:23.838Z,28.22
2022-08-17T18:46:36.182Z,28.25
2022-08-17T18:51:43.626Z,28.21
2022-08-17T18:57:02.649Z,28.11
2022-08-17T19:02:38.773Z,28.05
2022-08-17T19:07:51.496Z,27.80
2022-08-17T19:13:49.968Z,27.46
2022-08-17T19:19:18.067Z,27.13
2022-08-17T19:24:30.267Z,26.79
2022-08-17T19:29:54.810Z,26.47
2022-08-17T19:35:19.465Z,26.06
2022-08-17T19:41:01.319Z,25.47
2022-08-17T19:46:26.123Z,24.84
2022-08-17T19:58:09.495Z,24.30
2022-08-17T20:09:17.745Z,23.74
2022-08-17T20:15:05.317Z,23.99
2022-08-17T20:20:54.684Z,24.06
2022-08-17T20:26:19.293Z,24.12
2022-08-17T20:32:06.736Z,24.11
2022-08-17T20:37:21.891Z,24.15
2022-08-17T20:42:34.087Z,24.19
2022-08-17T20:48:22.111Z,24.26
2022-08-17T20:53:55.231Z,24.35
2022-08-17T20:59:06.861Z,24.38
2022-08-17T21:04:52.367Z,24.44
2022-08-17T21:10:19.742Z,24.48
2022-08-17T21:16:12.992Z,24.51
2022-08-17T21:21:52.264Z,24.44
2022-08-17T21:27:26.111Z,24.32
2022-08-17T21:32:44.982Z,24.25
2022-08-17T21:38:07.242Z,24.17
2022-08-17T21:43:32.172Z,24.11
2022-08-17T21:48:48.573Z,24.08
2022-08-17T21:54:06.226Z,24.07
2022-08-17T22:00:09.186Z,24.05
2022-08-17T22:05:14.578Z,24.01
2022-08-17T22:10:41.477Z,23.98
2022-08-17T22:15:54.382Z,23.94
2022-08-17T22:21:12.739Z,23.93
2022-08-17T22:26:28.782Z,23.98
2022-08-17T22:32:01.322Z,24.03
2022-08-17T22:37:51.145Z,24.10
2022-08-17T22:42:58.279Z,24.10
2022-08-17T22:48:08.170Z,24.07
2022-08-17T22:53:42.932Z,24.04
2022-08-17T22:59:32.623Z,23.99
2022-08-17T23:04:47.380Z,23.97
2022-08-17T23:09:54.918Z,23.97
2022-08-17T23:15:07.424Z,23.96
2022-08-17T23:20:23.437Z,23.86
2022-08-17T23:25:37.411Z,23.96
2022-08-17T23:30:45.418Z,23.86
2022-08-17T23:35:49.409Z,23.79
2022-08-17T23:40:54.469Z,23.74
2022-08-17T23:46:08.190Z,23.73
2022-08-17T23:51:17.056Z,23.71
2022-08-17T23:56:30.834Z,23.58
